Time;durP1;ratioP1;P1;durP2;ratioP2;P2;SDS_P1;SDS_P2;PMS_P1;PMS_P2;Temp;Humidity;BMP_temperature;BMP_pressure;BME280_temperature;BME280_humidity;BME280_pressure;Samples;Min_cycle;Max_cycle;Signal;HPM_P1;HPM_P2
2022/11/05 00:09:58;;;;;;;16.15;8.07;;;;;;;7.96;100.00;101438.34;2616269;36;20034;-53
2022/11/05 00:17:48;;;;;;;15.77;6.90;;;;;;;7.92;100.00;101427.00;2617512;36;20038;-56
2022/11/05 00:20:16;;;;;;;12.68;7.15;;;;;;;7.93;100.00;101438.56;2615925;36;20034;-53
2022/11/05 00:25:29;;;;;;;11.82;6.78;;;;;;;7.72;100.00;101437.22;2614884;36;20544;-58
2022/11/05 00:28:02;;;;;;;10.15;7.03;;;;;;;7.71;100.00;101432.84;2614863;31;20034;-54
2022/11/05 00:30:31;;;;;;;10.65;6.50;;;;;;;7.70;100.00;101446.38;2615353;31;20034;-54
2022/11/05 00:33:03;;;;;;;13.63;6.40;;;;;;;7.67;100.00;101442.06;2616081;36;20610;-56
2022/11/05 00:35:31;;;;;;;17.70;8.05;;;;;;;7.69;100.00;101444.63;2616236;36;20053;-54
2022/11/05 00:38:02;;;;;;;11.70;7.40;;;;;;;7.61;100.00;101445.16;2615529;36;20419;-54
2022/11/05 00:40:31;;;;;;;12.40;6.97;;;;;;;7.57;100.00;101443.63;2616267;36;20034;-55
2022/11/05 00:45:40;;;;;;;13.65;7.13;;;;;;;7.56;100.00;101457.97;2616008;36;20423;-55
2022/11/05 00:50:49;;;;;;;14.73;7.70;;;;;;;7.43;100.00;101465.09;2616933;36;20034;-52
2022/11/05 00:53:21;;;;;;;12.70;7.60;;;;;;;7.46;100.00;101462.22;2616213;36;20030;-51
2022/11/05 00:55:49;;;;;;;10.50;6.60;;;;;;;7.43;100.00;101467.78;2614839;36;20633;-53
2022/11/05 00:58:19;;;;;;;11.52;6.75;;;;;;;7.21;100.00;101471.84;2614896;36;20051;-56
2022/11/05 01:00:51;;;;;;;14.82;7.95;;;;;;;7.31;100.00;101459.59;2613770;36;20541;-54
2022/11/05 01:03:21;;;;;;;10.35;6.70;;;;;;;7.23;100.00;101459.25;2616595;31;20420;-53
2022/11/05 01:05:51;;;;;;;11.77;6.80;;;;;;;7.12;100.00;101461.75;2614890;36;20038;-55
2022/11/05 01:08:25;;;;;;;12.00;6.40;;;;;;;7.06;100.00;101463.00;2616184;36;20458;-54
2022/11/05 01:10:55;;;;;;;9.77;7.43;;;;;;;7.03;100.00;101470.38;2616377;36;20041;-57
2022/11/05 01:13:26;;;;;;;13.70;6.75;;;;;;;7.00;100.00;101474.94;2615307;36;20494;-51
2022/11/05 01:15:54;;;;;;;12.70;6.63;;;;;;;6.98;100.00;101468.00;2615762;31;20034;-53
2022/11/05 01:18:24;;;;;;;9.32;6.00;;;;;;;7.03;100.00;101473.91;2616403;36;20019;-57
2022/11/05 01:20:52;;;;;;;13.57;7.10;;;;;;;7.04;100.00;101469.41;2616822;31;20443;-55
2022/11/05 01:23:23;;;;;;;10.43;6.20;;;;;;;7.15;100.00;101469.59;2616105;36;20058;-54
2022/11/05 01:25:52;;;;;;;11.77;5.88;;;;;;;7.12;100.00;101475.97;2615100;36;20034;-52
2022/11/05 01:28:20;;;;;;;10.88;6.45;;;;;;;7.13;100.00;101476.88;2615558;36;20034;-54
2022/11/05 01:30:56;;;;;;;10.93;5.47;;;;;;;7.03;100.00;101483.75;2614741;31;20035;-50
2022/11/05 01:33:25;;;;;;;8.13;5.85;;;;;;;6.97;100.00;101472.47;2616414;36;20018;-56
2022/11/05 01:35:53;;;;;;;9.55;6.05;;;;;;;6.96;100.00;101491.31;2617014;31;20289;-55
2022/11/05 01:38:24;;;;;;;11.07;6.15;;;;;;;7.01;100.00;101492.75;2616278;36;20483;-54
2022/11/05 01:40:52;;;;;;;11.10;5.40;;;;;;;7.10;100.00;101493.13;2615609;36;20026;-52
2022/11/05 01:43:22;;;;;;;10.02;5.93;;;;;;;7.15;100.00;101491.00;2616615;36;20031;-55
2022/11/05 01:45:53;;;;;;;8.68;5.65;;;;;;;7.14;100.00;101489.28;2614746;36;20435;-55
2022/11/05 01:48:24;;;;;;;13.65;6.13;;;;;;;7.13;100.00;101492.94;2615493;36;20029;-52
2022/11/05 01:50:57;;;;;;;10.35;5.43;;;;;;;7.12;100.00;101492.03;2615147;36;20038;-53
2022/11/05 01:53:32;;;;;;;13.63;6.55;;;;;;;7.12;100.00;101493.88;2615479;36;20041;-55
2022/11/05 01:56:07;;;;;;;12.90;5.70;;;;;;;7.16;100.00;101490.03;2615369;36;20038;-52
2022/11/05 01:58:41;;;;;;;11.82;5.80;;;;;;;7.11;100.00;101487.66;2611751;36;20061;-56
2022/11/05 02:01:09;;;;;;;9.77;5.88;;;;;;;7.07;100.00;101478.13;2605778;36;20042;-54
2022/11/05 02:03:38;;;;;;;9.55;5.95;;;;;;;7.13;100.00;101479.53;2615112;36;20034;-54
2022/11/05 02:06:08;;;;;;;9.10;5.57;;;;;;;7.17;100.00;101473.88;2616173;36;20022;-54
2022/11/05 02:08:52;;;;;;;12.07;5.95;;;;;;;7.03;100.00;101476.59;2615735;36;21944;-52
2022/11/05 02:11:21;;;;;;;14.40;5.93;;;;;;;7.10;100.00;101471.72;2615159;36;20045;-53
2022/11/05 02:13:51;;;;;;;8.30;5.38;;;;;;;7.13;100.00;101466.16;2615939;36;20034;-49
2022/11/05 02:16:28;;;;;;;;;;;;;;;7.00;100.00;101461.56;2614967;36;20038;-52
2022/11/05 02:19:01;;;;;;;9.18;5.53;;;;;;;7.07;100.00;101461.19;2616617;36;19951;-52
2022/11/05 02:22:20;;;;;;;9.10;5.22;;;;;;;7.07;100.00;101458.53;2616020;31;20034;-51
2022/11/05 02:25:03;;;;;;;9.77;5.43;;;;;;;7.03;100.00;101460.53;2614050;31;20029;-52
2022/11/05 02:27:50;;;;;;;9.60;5.40;;;;;;;6.99;100.00;101465.22;2616365;36;20065;-53
2022/11/05 02:30:35;;;;;;;10.80;5.55;;;;;;;6.97;100.00;101469.78;2614603;31;20043;-53
2022/11/05 02:33:17;;;;;;;11.85;5.78;;;;;;;6.98;100.00;101457.28;2615286;36;20057;-51
2022/11/05 02:36:07;;;;;;;7.15;4.80;;;;;;;6.97;100.00;101466.28;2615458;36;20041;-54
2022/11/05 02:38:42;;;;;;;10.18;5.20;;;;;;;6.90;100.00;101465.78;2615486;36;20038;-56
2022/11/05 02:41:20;;;;;;;9.77;5.25;;;;;;;6.86;100.00;101458.94;2614724;36;20035;-56
2022/11/05 02:44:00;;;;;;;10.88;5.50;;;;;;;6.89;100.00;101453.38;2615060;36;21023;-52
2022/11/05 02:46:38;;;;;;;9.93;5.20;;;;;;;6.90;100.00;101460.44;2614839;31;20045;-52
2022/11/05 02:49:16;;;;;;;8.65;5.68;;;;;;;6.85;100.00;101462.56;2616272;31;20041;-53
2022/11/05 02:51:53;;;;;;;8.25;4.70;;;;;;;6.91;100.00;101464.00;2616251;36;20309;-53
2022/11/05 02:54:28;;;;;;;9.23;5.47;;;;;;;6.84;100.00;101458.16;2613958;36;20038;-54
2022/11/05 02:56:59;;;;;;;12.13;7.28;;;;;;;6.82;100.00;101457.41;2614796;36;20033;-52
2022/11/05 02:59:28;;;;;;;14.65;6.15;;;;;;;6.74;100.00;101468.56;2616679;36;20416;-52
2022/11/05 03:02:00;;;;;;;12.48;6.05;;;;;;;6.84;100.00;101472.38;2614541;31;20023;-55
2022/11/05 03:04:31;;;;;;;9.25;6.18;;;;;;;6.91;100.00;101470.19;2615158;36;20578;-54
2022/11/05 03:07:28;;;;;;;11.15;5.47;;;;;;;6.80;100.00;101465.53;2616252;36;20026;-50
2022/11/05 03:10:15;;;;;;;8.70;5.47;;;;;;;6.89;100.00;101473.91;2614327;36;20023;-54
2022/11/05 03:12:57;;;;;;;11.15;5.78;;;;;;;6.84;100.00;101482.25;2615890;31;20035;-53
2022/11/05 03:15:40;;;;;;;11.60;5.90;;;;;;;6.81;100.00;101477.09;2615197;36;20042;-56
2022/11/05 03:18:17;;;;;;;11.30;4.65;;;;;;;6.73;100.00;101474.91;2615506;36;20215;-52
2022/11/05 03:20:51;;;;;;;9.82;5.70;;;;;;;6.69;100.00;101468.00;2615980;36;20535;-54
2022/11/05 03:23:27;;;;;;;10.30;5.45;;;;;;;6.65;100.00;101455.78;2616659;31;20031;-56
2022/11/05 03:26:03;;;;;;;11.52;6.43;;;;;;;6.68;100.00;101468.13;2615334;36;20037;-51
2022/11/05 03:28:35;;;;;;;8.93;5.05;;;;;;;6.71;100.00;101468.75;2615023;36;20425;-50
2022/11/05 03:31:07;;;;;;;9.75;5.53;;;;;;;6.70;100.00;101459.03;2614830;36;20023;-52
2022/11/05 03:33:41;;;;;;;10.90;5.60;;;;;;;6.59;100.00;101467.72;2615043;36;20038;-54
2022/11/05 03:36:15;;;;;;;11.35;5.72;;;;;;;6.60;100.00;101464.09;2616304;31;20035;-52
2022/11/05 03:38:48;;;;;;;9.77;6.07;;;;;;;6.69;100.00;101472.50;2616546;31;20054;-54
2022/11/05 03:41:18;;;;;;;8.45;5.15;;;;;;;6.61;100.00;101473.84;2613833;36;20023;-52
2022/11/05 03:43:51;;;;;;;8.90;5.30;;;;;;;6.59;100.00;101461.53;2613213;36;20054;-52
2022/11/05 03:46:24;;;;;;;9.48;5.50;;;;;;;6.61;100.00;101464.94;2615456;36;20031;-55
2022/11/05 03:48:58;;;;;;;10.57;5.57;;;;;;;6.61;100.00;101470.28;2614425;36;20038;-55
2022/11/05 03:51:33;;;;;;;8.57;6.22;;;;;;;6.63;100.00;101463.06;2615219;36;20046;-52
2022/11/05 03:54:04;;;;;;;8.18;5.10;;;;;;;6.43;100.00;101466.94;2615074;36;20022;-52
2022/11/05 03:56:39;;;;;;;14.23;5.65;;;;;;;6.49;100.00;101471.91;2615383;36;20418;-53
2022/11/05 03:59:10;;;;;;;12.02;5.65;;;;;;;6.50;100.00;101479.00;2614652;36;20043;-55
2022/11/05 04:01:40;;;;;;;16.30;6.30;;;;;;;6.56;100.00;101480.44;2614864;36;20031;-55
2022/11/05 04:04:11;;;;;;;;;;;;;;;6.95;100.00;101469.03;2615939;36;20563;-52
2022/11/05 04:14:41;;;;;;;9.32;5.72;;;;;;;6.94;100.00;101483.38;2617327;36;20430;-51
2022/11/05 04:17:08;;;;;;;8.25;6.28;;;;;;;7.11;100.00;101484.13;2616309;36;20022;-50
2022/11/05 04:25:02;;;;;;;8.45;6.00;;;;;;;7.08;100.00;101490.53;2617231;36;20440;-50
2022/11/05 04:27:30;;;;;;;10.30;6.05;;;;;;;7.11;100.00;101493.03;2614389;36;20041;-55
2022/11/05 04:32:58;;;;;;;13.25;6.35;;;;;;;6.90;100.00;101491.69;2614746;36;20034;-52
2022/11/05 04:35:31;;;;;;;12.88;6.72;;;;;;;6.95;100.00;101498.50;2616216;36;20034;-53
2022/11/05 04:37:59;;;;;;;10.20;6.32;;;;;;;7.01;100.00;101492.75;2615420;36;20443;-51
2022/11/05 04:40:27;;;;;;;11.32;6.38;;;;;;;6.97;100.00;101495.72;2614783;36;20037;-54
2022/11/05 04:42:57;;;;;;;10.45;5.82;;;;;;;6.97;100.00;101493.88;2616627;36;20432;-56
2022/11/05 04:45:25;;;;;;;;;;;;;;;6.94;100.00;101490.56;2615949;36;20435;-52
2022/11/05 04:47:54;;;;;;;12.87;6.70;;;;;;;6.81;100.00;101487.78;2615680;36;19951;-53
2022/11/05 04:50:23;;;;;;;14.02;7.30;;;;;;;6.83;100.00;101493.88;2616172;36;20030;-52
2022/11/05 04:52:54;;;;;;;10.07;6.22;;;;;;;6.79;100.00;101484.34;2616257;36;20038;-51
2022/11/05 04:55:22;;;;;;;11.30;6.45;;;;;;;6.75;100.00;101489.03;2615812;36;20508;-55
2022/11/05 04:57:51;;;;;;;13.00;7.55;;;;;;;6.71;100.00;101489.31;2615775;36;20022;-51
2022/11/05 05:00:21;;;;;;;10.95;6.30;;;;;;;6.61;100.00;101489.00;2614498;36;20030;-56
2022/11/05 05:02:59;;;;;;;11.93;7.47;;;;;;;6.62;100.00;101498.78;2616636;36;20072;-54
2022/11/05 05:05:29;;;;;;;12.93;7.10;;;;;;;6.55;100.00;101502.78;2615877;36;20031;-55
2022/11/05 05:08:02;;;;;;;11.30;6.47;;;;;;;6.70;100.00;101507.19;2616281;36;20034;-58
2022/11/05 05:10:31;;;;;;;11.43;7.30;;;;;;;6.78;100.00;101504.03;2614535;36;20039;-54
2022/11/05 05:12:59;;;;;;;10.90;6.82;;;;;;;6.87;100.00;101499.94;2614588;36;20035;-54
2022/11/05 05:15:27;;;;;;;15.45;7.88;;;;;;;7.03;100.00;101502.50;2616084;31;20053;-52
2022/11/05 05:17:56;;;;;;;15.35;8.45;;;;;;;7.06;100.00;101502.31;2616023;36;20022;-52
2022/11/05 05:23:07;;;;;;;12.23;8.25;;;;;;;7.13;100.00;101496.44;2616139;36;20031;-54
2022/11/05 05:25:36;;;;;;;14.60;8.20;;;;;;;7.07;100.00;101496.84;2615855;36;20487;-51
2022/11/05 05:28:04;;;;;;;16.77;8.32;;;;;;;7.06;100.00;101505.81;2614191;36;20126;-53
2022/11/05 05:30:32;;;;;;;15.00;8.20;;;;;;;7.12;100.00;101504.59;2616192;36;20463;-55
2022/11/05 05:33:03;;;;;;;11.43;7.57;;;;;;;7.03;100.00;101502.50;2616261;36;20543;-57
2022/11/05 05:35:32;;;;;;;13.38;8.18;;;;;;;7.01;100.00;101502.59;2615371;31;20045;-53
2022/11/05 05:38:00;;;;;;;14.35;8.23;;;;;;;7.03;100.00;101502.50;2614806;36;20999;-54
2022/11/05 05:40:31;;;;;;;14.70;8.70;;;;;;;7.01;100.00;101506.13;2615934;36;20384;-52
2022/11/05 05:42:59;;;;;;;12.05;8.05;;;;;;;7.09;100.00;101502.94;2615492;36;20057;-52
2022/11/05 05:45:27;;;;;;;12.75;8.35;;;;;;;7.10;100.00;101499.31;2616289;36;20027;-52
2022/11/05 05:47:56;;;;;;;15.23;8.30;;;;;;;6.99;100.00;101507.16;2615578;36;20037;-53
2022/11/05 05:50:25;;;;;;;16.55;8.98;;;;;;;7.05;100.00;101500.56;2615840;31;20558;-55
2022/11/05 05:52:53;;;;;;;13.20;8.77;;;;;;;6.93;100.00;101505.72;2613742;36;20034;-52
2022/11/05 05:55:21;;;;;;;15.40;8.60;;;;;;;6.96;100.00;101512.72;2616709;31;20550;-55
2022/11/05 05:57:52;;;;;;;15.32;8.57;;;;;;;6.72;100.00;101515.13;2616196;31;20034;-50
2022/11/05 06:00:21;;;;;;;16.20;8.82;;;;;;;6.90;100.00;101513.97;2614777;36;20041;-52
2022/11/05 06:02:49;;;;;;;12.93;7.28;;;;;;;6.98;100.00;101521.53;2616032;36;20463;-52
2022/11/05 06:05:17;;;;;;;13.43;7.78;;;;;;;6.96;100.00;101526.09;2617005;36;20026;-50
2022/11/05 06:07:46;;;;;;;18.08;8.25;;;;;;;6.86;100.00;101533.88;2616580;36;20034;-52
2022/11/05 06:10:14;;;;;;;12.07;7.32;;;;;;;6.89;100.00;101533.66;2616105;36;20029;-57
2022/11/05 06:12:42;;;;;;;14.20;8.80;;;;;;;6.97;100.00;101536.72;2615730;36;20045;-55
2022/11/05 06:15:13;;;;;;;12.40;7.85;;;;;;;7.07;100.00;101528.97;2616222;36;20030;-56
2022/11/05 06:17:42;;;;;;;15.43;8.45;;;;;;;7.16;100.00;101530.22;2616730;36;20026;-53
2022/11/05 06:20:11;;;;;;;12.48;8.27;;;;;;;7.22;100.00;101529.81;2615872;36;20038;-53
2022/11/05 06:22:40;;;;;;;12.75;8.32;;;;;;;7.14;100.00;101538.34;2615288;54;20037;-54
2022/11/05 06:25:10;;;;;;;12.15;7.50;;;;;;;7.13;100.00;101541.13;2616481;54;20037;-54
2022/11/05 06:27:38;;;;;;;11.57;7.30;;;;;;;7.09;100.00;101539.56;2615335;54;20045;-50
2022/11/05 06:30:08;;;;;;;11.93;7.10;;;;;;;7.04;100.00;101536.31;2612967;36;20038;-53
2022/11/05 06:32:39;;;;;;;15.63;8.27;;;;;;;6.97;100.00;101536.72;2615971;36;20033;-53
2022/11/05 06:35:07;;;;;;;12.23;7.60;;;;;;;7.01;100.00;101543.59;2614052;36;20034;-53
2022/11/05 06:37:36;;;;;;;14.60;8.43;;;;;;;6.89;100.00;101544.38;2615961;36;20040;-54
2022/11/05 06:40:04;;;;;;;11.27;7.72;;;;;;;6.92;100.00;101544.19;2615794;36;20030;-50
2022/11/05 06:42:33;;;;;;;13.18;8.35;;;;;;;6.98;100.00;101546.47;2614455;36;20030;-53
2022/11/05 06:45:01;;;;;;;13.23;8.35;;;;;;;7.04;100.00;101553.25;2615070;36;20037;-53
2022/11/05 06:47:30;;;;;;;13.20;7.95;;;;;;;6.95;100.00;101551.13;2615599;36;20039;-51
2022/11/05 06:50:01;;;;;;;12.18;8.20;;;;;;;6.90;100.00;101556.78;2613654;36;20060;-48
2022/11/05 06:52:30;;;;;;;11.77;7.63;;;;;;;7.02;100.00;101549.78;2615828;36;20454;-49
2022/11/05 06:54:59;;;;;;;13.77;8.15;;;;;;;7.05;100.00;101543.41;2615074;36;20411;-59
2022/11/05 06:57:27;;;;;;;14.07;8.23;;;;;;;7.04;100.00;101547.03;2616133;31;20170;-56
2022/11/05 06:59:55;;;;;;;18.05;9.52;;;;;;;7.06;100.00;101548.66;2614118;36;20034;-55
2022/11/05 07:02:23;;;;;;;12.25;7.45;;;;;;;7.01;100.00;101551.63;2615538;31;20038;-51
2022/11/05 07:04:52;;;;;;;13.77;8.02;;;;;;;7.00;100.00;101562.44;2614482;36;20023;-50
2022/11/05 07:07:23;;;;;;;11.05;7.32;;;;;;;7.11;100.00;101565.31;2615735;36;20023;-54
2022/11/05 07:09:53;;;;;;;17.95;8.32;;;;;;;6.91;100.00;101563.00;2614282;36;20564;-56
2022/11/05 07:12:22;;;;;;;14.70;8.93;;;;;;;7.05;100.00;101560.31;2614842;36;20023;-50
2022/11/05 07:14:50;;;;;;;13.48;8.65;;;;;;;7.05;100.00;101554.09;2615773;31;20046;-52
2022/11/05 07:17:19;;;;;;;15.65;8.82;;;;;;;7.08;100.00;101554.78;2616182;31;20041;-53
2022/11/05 07:19:47;;;;;;;13.63;8.05;;;;;;;7.20;100.00;101555.84;2616313;36;20412;-52
2022/11/05 07:22:15;;;;;;;12.10;8.02;;;;;;;7.24;100.00;101560.00;2614734;36;20042;-55
2022/11/05 07:24:48;;;;;;;13.35;8.02;;;;;;;7.33;100.00;101562.13;2615477;36;20030;-56
2022/11/05 07:27:16;;;;;;;12.02;7.88;;;;;;;7.35;100.00;101562.88;2615869;36;20027;-53
2022/11/05 07:29:44;;;;;;;16.63;8.50;;;;;;;7.28;100.00;101566.91;2615352;36;20427;-52
2022/11/05 07:32:13;;;;;;;12.00;7.60;;;;;;;7.40;100.00;101564.41;2615519;36;20041;-48
2022/11/05 07:34:41;;;;;;;14.25;8.38;;;;;;;7.28;100.00;101560.69;2615186;36;20031;-57
2022/11/05 07:37:09;;;;;;;13.45;8.23;;;;;;;7.35;100.00;101572.75;2616303;36;20022;-52
2022/11/05 07:39:38;;;;;;;11.52;7.85;;;;;;;7.40;100.00;101572.44;2616264;36;20045;-55
2022/11/05 07:42:18;;;;;;;12.80;8.43;;;;;;;7.43;100.00;101572.25;2616768;31;20042;-55
2022/11/05 07:44:48;;;;;;;13.02;8.20;;;;;;;7.49;100.00;101571.84;2615511;31;20129;-54
2022/11/05 07:47:16;;;;;;;15.63;7.93;;;;;;;7.53;100.00;101574.22;2616780;36;20033;-52
2022/11/05 07:49:44;;;;;;;13.60;8.07;;;;;;;7.53;100.00;101576.06;2616936;36;20023;-51
2022/11/05 07:52:12;;;;;;;12.15;7.72;;;;;;;7.61;100.00;101573.75;2616647;31;20042;-54
2022/11/05 07:54:41;;;;;;;15.43;8.93;;;;;;;7.66;100.00;101582.34;2617030;36;20046;-52
2022/11/05 07:57:09;;;;;;;15.35;8.30;;;;;;;7.83;100.00;101577.69;2616530;36;20446;-55
2022/11/05 07:59:40;;;;;;;14.07;8.35;;;;;;;7.70;100.00;101586.53;2615820;36;20030;-52
2022/11/05 08:02:11;;;;;;;15.48;8.45;;;;;;;7.80;100.00;101581.44;2615730;36;20038;-55
2022/11/05 08:04:41;;;;;;;14.63;8.60;;;;;;;7.84;100.00;101590.13;2616579;31;20569;-55
2022/11/05 08:07:09;;;;;;;20.40;9.57;;;;;;;7.89;100.00;101585.31;2617631;36;20426;-52
2022/11/05 08:09:38;;;;;;;13.67;8.57;;;;;;;7.97;100.00;101590.19;2616788;36;20026;-50
2022/11/05 08:12:07;;;;;;;13.55;8.85;;;;;;;8.06;100.00;101585.06;2615680;36;20035;-53
2022/11/05 08:14:35;;;;;;;15.52;9.10;;;;;;;8.34;100.00;101585.91;2615304;36;20034;-52
2022/11/05 08:17:06;;;;;;;15.25;8.88;;;;;;;8.43;100.00;101589.78;2615668;36;20022;-54
2022/11/05 08:19:35;;;;;;;15.00;8.73;;;;;;;8.57;100.00;101594.25;2617018;36;20034;-52
2022/11/05 08:22:03;;;;;;;14.93;9.32;;;;;;;8.63;100.00;101588.47;2616349;36;20038;-54
2022/11/05 08:24:31;;;;;;;18.45;9.00;;;;;;;8.65;100.00;101586.53;2616718;36;20023;-52
2022/11/05 08:26:59;;;;;;;17.42;9.98;;;;;;;8.90;100.00;101585.69;2616334;36;20104;-55
2022/11/05 08:29:28;;;;;;;17.77;9.77;;;;;;;8.98;100.00;101584.28;2615226;36;20042;-54
2022/11/05 08:31:56;;;;;;;17.90;9.63;;;;;;;9.04;100.00;101582.03;2614445;36;20030;-53
2022/11/05 08:34:27;;;;;;;17.08;10.23;;;;;;;9.09;100.00;101579.03;2607793;36;20600;-51
2022/11/05 08:36:55;;;;;;;16.63;10.00;;;;;;;9.14;100.00;101581.38;2616004;36;20034;-52
2022/11/05 08:39:24;;;;;;;14.60;9.90;;;;;;;9.31;100.00;101577.50;2615179;36;20053;-50
2022/11/05 08:41:52;;;;;;;18.63;10.85;;;;;;;9.26;100.00;101583.19;2616937;36;20035;-56
2022/11/05 08:44:20;;;;;;;17.17;9.20;;;;;;;9.28;100.00;101583.94;2614471;36;20027;-54
2022/11/05 08:46:48;;;;;;;12.88;9.13;;;;;;;9.40;100.00;101583.06;2615997;36;20025;-55
2022/11/05 08:49:17;;;;;;;17.83;10.20;;;;;;;9.33;100.00;101587.16;2616150;36;20022;-54
2022/11/05 08:51:48;;;;;;;19.90;10.20;;;;;;;9.33;100.00;101587.16;2615172;36;20030;-51
2022/11/05 08:54:16;;;;;;;14.73;9.88;;;;;;;9.35;100.00;101587.91;2616359;31;20039;-51
2022/11/05 08:56:47;;;;;;;16.15;9.70;;;;;;;9.49;100.00;101586.06;2616146;31;20041;-51
2022/11/05 08:59:15;;;;;;;17.98;9.43;;;;;;;9.53;100.00;101587.56;2610214;36;20035;-53
2022/11/05 09:01:44;;;;;;;14.95;9.40;;;;;;;9.69;100.00;101592.66;2615640;31;20555;-52
2022/11/05 09:04:12;;;;;;;14.38;9.75;;;;;;;9.80;100.00;101588.22;2615148;36;20030;-57
2022/11/05 09:06:40;;;;;;;14.93;8.90;;;;;;;9.88;100.00;101589.47;2615942;36;20041;-54
2022/11/05 09:09:11;;;;;;;13.10;9.57;;;;;;;9.92;100.00;101582.88;2615853;36;20025;-51
2022/11/05 09:11:40;;;;;;;16.10;9.55;;;;;;;9.90;100.00;101585.69;2616313;36;20033;-54
2022/11/05 09:14:08;;;;;;;12.90;8.65;;;;;;;10.00;100.00;101575.97;2614963;36;20042;-53
2022/11/05 09:16:36;;;;;;;15.40;9.10;;;;;;;10.03;100.00;101574.88;2615173;36;20031;-53
2022/11/05 09:19:05;;;;;;;14.70;9.57;;;;;;;10.17;100.00;101581.91;2616174;36;20034;-53
2022/11/05 09:21:34;;;;;;;14.73;9.02;;;;;;;10.34;100.00;101577.97;2615680;36;20031;-53
2022/11/05 09:24:03;;;;;;;10.50;7.88;;;;;;;10.16;100.00;101578.38;2615983;36;20038;-51
2022/11/05 09:26:34;;;;;;;13.93;8.95;;;;;;;10.13;100.00;101575.06;2614771;36;20031;-55
2022/11/05 09:29:02;;;;;;;11.45;7.88;;;;;;;10.29;100.00;101580.13;2615579;36;20022;-55
2022/11/05 09:31:30;;;;;;;11.73;7.65;;;;;;;10.35;100.00;101579.72;2615828;36;20026;-53
2022/11/05 09:33:59;;;;;;;17.63;8.20;;;;;;;10.45;100.00;101586.09;2616047;36;20030;-52
2022/11/05 09:36:27;;;;;;;16.33;9.23;;;;;;;10.73;100.00;101573.19;2615394;31;20073;-55
2022/11/05 09:38:55;;;;;;;10.70;7.38;;;;;;;10.82;100.00;101574.28;2613970;36;20030;-53
2022/11/05 09:41:30;;;;;;;14.25;8.10;;;;;;;10.92;100.00;101586.06;2615673;36;20113;-50
2022/11/05 09:44:06;;;;;;;15.55;7.50;;;;;;;10.66;100.00;101594.34;2616340;36;20027;-53
2022/11/05 09:46:43;;;;;;;10.07;6.15;;;;;;;10.91;100.00;101586.19;2617098;31;20018;-54
2022/11/05 09:49:22;;;;;;;13.02;6.63;;;;;;;11.18;100.00;101596.63;2616881;36;20033;-53
2022/11/05 09:51:50;;;;;;;;;;;;;;;11.24;100.00;101589.91;2616554;36;20566;-54
2022/11/05 09:54:18;;;;;;;10.13;7.10;;;;;;;11.37;100.00;101590.63;2617136;31;20590;-52
2022/11/05 09:56:48;;;;;;;11.07;6.13;;;;;;;11.35;100.00;101597.97;2616294;36;20029;-56
2022/11/05 09:59:25;;;;;;;10.50;5.45;;;;;;;11.38;100.00;101589.63;2616820;31;20041;-52
2022/11/05 10:01:59;;;;;;;9.52;4.82;;;;;;;11.34;100.00;101598.97;2615885;36;20582;-53
2022/11/05 10:04:31;;;;;;;7.15;5.47;;;;;;;11.34;100.00;101604.34;2616517;36;20053;-56
2022/11/05 10:07:02;;;;;;;10.27;4.88;;;;;;;11.42;100.00;101598.34;2616620;36;20023;-57
2022/11/05 10:09:37;;;;;;;9.50;4.97;;;;;;;11.74;100.00;101603.81;2616630;36;20427;-55
2022/11/05 10:12:12;;;;;;;11.38;4.93;;;;;;;11.85;100.00;101598.41;2616689;31;20030;-55
2022/11/05 10:14:47;;;;;;;7.38;4.80;;;;;;;12.02;100.00;101598.88;2617138;36;20026;-57
2022/11/05 10:17:23;;;;;;;7.43;4.63;;;;;;;11.90;100.00;101593.47;2616403;31;20023;-55
2022/11/05 10:19:57;;;;;;;7.20;3.42;;;;;;;12.22;100.00;101599.88;2615642;31;20034;-53
2022/11/05 10:22:27;;;;;;;8.60;3.70;;;;;;;12.24;100.00;101596.09;2617512;31;20029;-54
2022/11/05 10:24:56;;;;;;;6.82;3.38;;;;;;;12.15;100.00;101602.25;2616067;36;20023;-54
2022/11/05 10:27:29;;;;;;;6.60;3.88;;;;;;;12.42;100.00;101603.63;2616132;31;20605;-53
2022/11/05 10:30:01;;;;;;;9.80;3.70;;;;;;;12.26;100.00;101602.22;2614493;36;20035;-54
2022/11/05 10:32:31;;;;;;;9.82;3.67;;;;;;;12.12;100.00;101605.22;2614420;36;20555;-50
2022/11/05 10:35:02;;;;;;;8.20;3.95;;;;;;;12.08;100.00;101603.75;2616104;36;21051;-58
2022/11/05 10:37:32;;;;;;;6.65;3.35;;;;;;;12.16;100.00;101605.81;2615744;36;20038;-51
2022/11/05 10:40:01;;;;;;;7.20;3.70;;;;;;;12.01;100.00;101619.59;2616863;31;20030;-56
2022/11/05 10:42:53;;;;;;;8.82;4.07;;;;;;;12.07;100.00;101615.53;2617013;36;20431;-52
2022/11/05 10:45:32;;;;;;;9.60;4.28;;;;;;;11.92;100.00;101615.81;2615554;31;20041;-51
2022/11/05 10:48:25;;;;;;;9.63;4.22;;;;;;;12.12;100.00;101607.91;2615358;36;20038;-53
2022/11/05 10:50:53;;;;;;;7.50;3.97;;;;;;;12.18;100.00;101598.47;2613683;36;20053;-53
2022/11/05 10:53:24;;;;;;;8.73;4.10;;;;;;;12.19;100.00;101601.03;2615497;36;20042;-53
2022/11/05 10:55:53;;;;;;;9.45;4.90;;;;;;;12.13;100.00;101601.53;2615916;36;20042;-53
2022/11/05 10:58:26;;;;;;;8.73;5.05;;;;;;;12.37;100.00;101604.00;2614890;36;20419;-50
2022/11/05 11:01:09;;;;;;;12.77;4.50;;;;;;;12.46;100.00;101615.03;2615770;31;20583;-50
2022/11/05 11:03:44;;;;;;;7.10;4.10;;;;;;;12.53;100.00;101606.28;2616135;36;20030;-49
2022/11/05 11:06:33;;;;;;;5.18;3.30;;;;;;;12.64;100.00;101604.50;2616059;31;20031;-48
2022/11/05 11:09:03;;;;;;;9.32;4.13;;;;;;;12.65;100.00;101606.19;2614928;36;20039;-50
2022/11/05 11:11:35;;;;;;;7.10;4.28;;;;;;;12.67;100.00;101610.47;2616074;36;20415;-47
2022/11/05 11:14:06;;;;;;;10.90;4.40;;;;;;;12.47;100.00;101604.09;2616314;36;20114;-51
2022/11/05 11:16:40;;;;;;;8.32;3.47;;;;;;;12.32;100.00;101611.63;2615118;36;20037;-50
2022/11/05 11:19:25;;;;;;;5.95;3.67;;;;;;;12.42;100.00;101614.41;2616698;36;20045;-48
2022/11/05 11:22:21;;;;;;;6.40;3.58;;;;;;;12.43;100.00;101608.03;2616501;36;20030;-50
2022/11/05 11:24:52;;;;;;;5.97;3.42;;;;;;;12.54;100.00;101605.25;2615262;31;20045;-48
2022/11/05 11:27:25;;;;;;;9.27;3.50;;;;;;;12.60;100.00;101598.50;2616597;31;20562;-53
2022/11/05 11:29:59;;;;;;;7.97;3.55;;;;;;;12.86;100.00;101598.94;2615891;36;20531;-49
2022/11/05 11:32:37;;;;;;;7.70;3.60;;;;;;;13.00;100.00;101607.69;2613064;36;20061;-53
2022/11/05 11:35:08;;;;;;;9.48;3.90;;;;;;;12.73;100.00;101590.19;2614299;36;20693;-53
2022/11/05 11:37:41;;;;;;;9.25;3.53;;;;;;;12.56;100.00;101592.50;2615812;31;20042;-50
2022/11/05 11:40:17;;;;;;;9.07;4.22;;;;;;;12.39;100.00;101590.38;2613549;36;20035;-54
2022/11/05 11:42:48;;;;;;;8.80;3.38;;;;;;;12.65;100.00;101600.78;2613858;36;20041;-47
2022/11/05 11:45:20;;;;;;;7.78;3.67;;;;;;;12.84;100.00;101605.47;2612718;31;20415;-52
2022/11/05 11:47:51;;;;;;;11.40;3.55;;;;;;;13.05;100.00;101597.38;2614297;36;20029;-52
2022/11/05 11:50:37;;;;;;;8.45;3.72;;;;;;;12.83;100.00;101599.22;2613809;36;20114;-46
2022/11/05 11:53:28;;;;;;;6.05;3.45;;;;;;;12.46;100.00;101605.06;2582710;36;20547;-50
2022/11/05 11:56:02;;;;;;;8.32;3.47;;;;;;;12.39;100.00;101606.59;2613159;31;20057;-49
2022/11/05 11:58:40;;;;;;;7.47;4.05;;;;;;;12.49;100.00;101602.13;2614062;36;20685;-49
2022/11/05 12:01:46;;;;;;;8.15;3.65;;;;;;;12.44;100.00;101607.06;2599496;36;20038;-47
2022/11/05 12:04:30;;;;;;;6.82;3.33;;;;;;;12.31;100.00;101592.88;2616155;36;20559;-50
2022/11/05 12:07:10;;;;;;;8.70;3.58;;;;;;;12.62;100.00;101591.13;2616614;36;20049;-54
2022/11/05 12:09:54;;;;;;;6.70;3.92;;;;;;;12.29;100.00;101589.44;2616161;36;20023;-49
2022/11/05 12:12:28;;;;;;;4.88;3.30;;;;;;;12.35;100.00;101588.94;2615942;36;20041;-51
2022/11/05 12:15:01;;;;;;;6.47;4.07;;;;;;;12.51;100.00;101591.19;2616372;36;20026;-50
2022/11/05 12:17:44;;;;;;;6.95;3.88;;;;;;;12.39;100.00;101579.59;2617398;36;20423;-53
2022/11/05 12:20:28;;;;;;;6.30;3.60;;;;;;;12.18;100.00;101584.97;2616970;36;20446;-50
2022/11/05 12:23:14;;;;;;;7.28;3.80;;;;;;;12.41;100.00;101583.88;2613734;36;20127;-57